sensor_id;sensor_type;location;lat;lon;timestamp;P1;durP1;ratioP1;P2;durP2;ratioP2
43835;SDS011;39345;43.964;25.340;2023-02-28T00:01:54;8.10;;;5.72;;
43835;SDS011;39345;43.964;25.340;2023-02-28T00:04:21;10.20;;;6.60;;
43835;SDS011;39345;43.964;25.340;2023-02-28T00:06:49;7.47;;;4.93;;
43835;SDS011;39345;43.964;25.340;2023-02-28T00:09:16;8.23;;;6.03;;
43835;SDS011;39345;43.964;25.340;2023-02-28T00:11:43;9.45;;;6.10;;
43835;SDS011;39345;43.964;25.340;2023-02-28T00:14:11;8.07;;;5.82;;
43835;SDS011;39345;43.964;25.340;2023-02-28T00:16:38;8.30;;;5.63;;
43835;SDS011;39345;43.964;25.340;2023-02-28T00:19:06;7.95;;;5.82;;
43835;SDS011;39345;43.964;25.340;2023-02-28T00:21:33;7.22;;;5.18;;
43835;SDS011;39345;43.964;25.340;2023-02-28T00:24:01;8.43;;;5.68;;
43835;SDS011;39345;43.964;25.340;2023-02-28T00:26:29;8.05;;;5.63;;
43835;SDS011;39345;43.964;25.340;2023-02-28T00:28:56;8.13;;;6.05;;
43835;SDS011;39345;43.964;25.340;2023-02-28T00:31:24;8.38;;;6.20;;
43835;SDS011;39345;43.964;25.340;2023-02-28T00:33:52;9.20;;;6.45;;
43835;SDS011;39345;43.964;25.340;2023-02-28T00:36:19;9.25;;;6.45;;
43835;SDS011;39345;43.964;25.340;2023-02-28T00:38:47;9.18;;;6.35;;
43835;SDS011;39345;43.964;25.340;2023-02-28T00:41:14;9.48;;;7.07;;
43835;SDS011;39345;43.964;25.340;2023-02-28T00:43:42;9.30;;;6.60;;
43835;SDS011;39345;43.964;25.340;2023-02-28T00:46:10;10.07;;;7.18;;
43835;SDS011;39345;43.964;25.340;2023-02-28T00:48:37;8.80;;;6.50;;
43835;SDS011;39345;43.964;25.340;2023-02-28T00:51:05;10.00;;;7.13;;
43835;SDS011;39345;43.964;25.340;2023-02-28T00:53:32;8.60;;;6.65;;
43835;SDS011;39345;43.964;25.340;2023-02-28T00:56:00;10.32;;;6.47;;
43835;SDS011;39345;43.964;25.340;2023-02-28T00:58:27;8.93;;;6.20;;
43835;SDS011;39345;43.964;25.340;2023-02-28T01:00:56;10.05;;;6.00;;
43835;SDS011;39345;43.964;25.340;2023-02-28T01:03:23;9.13;;;6.13;;
43835;SDS011;39345;43.964;25.340;2023-02-28T01:05:51;10.77;;;7.45;;
43835;SDS011;39345;43.964;25.340;2023-02-28T01:08:19;9.70;;;7.25;;
43835;SDS011;39345;43.964;25.340;2023-02-28T01:10:47;9.38;;;6.15;;
43835;SDS011;39345;43.964;25.340;2023-02-28T01:13:14;8.30;;;5.60;;
43835;SDS011;39345;43.964;25.340;2023-02-28T01:15:43;9.52;;;6.45;;
43835;SDS011;39345;43.964;25.340;2023-02-28T01:18:12;10.40;;;6.47;;
43835;SDS011;39345;43.964;25.340;2023-02-28T01:20:39;9.52;;;6.93;;
43835;SDS011;39345;43.964;25.340;2023-02-28T01:23:08;8.60;;;6.05;;
43835;SDS011;39345;43.964;25.340;2023-02-28T01:25:35;11.80;;;6.78;;
43835;SDS011;39345;43.964;25.340;2023-02-28T01:28:03;10.95;;;6.88;;
43835;SDS011;39345;43.964;25.340;2023-02-28T01:30:33;11.65;;;7.70;;
43835;SDS011;39345;43.964;25.340;2023-02-28T01:33:00;8.90;;;6.28;;
43835;SDS011;39345;43.964;25.340;2023-02-28T01:35:28;11.98;;;8.70;;
43835;SDS011;39345;43.964;25.340;2023-02-28T01:37:55;10.27;;;6.50;;
43835;SDS011;39345;43.964;25.340;2023-02-28T01:40:35;9.80;;;6.07;;
43835;SDS011;39345;43.964;25.340;2023-02-28T01:43:02;11.85;;;7.78;;
43835;SDS011;39345;43.964;25.340;2023-02-28T01:45:30;15.15;;;8.52;;
43835;SDS011;39345;43.964;25.340;2023-02-28T01:47:58;11.20;;;7.45;;
43835;SDS011;39345;43.964;25.340;2023-02-28T01:50:28;11.45;;;7.93;;
43835;SDS011;39345;43.964;25.340;2023-02-28T01:52:59;12.32;;;8.18;;
43835;SDS011;39345;43.964;25.340;2023-02-28T01:55:30;12.25;;;8.95;;
43835;SDS011;39345;43.964;25.340;2023-02-28T01:58:00;12.10;;;8.85;;
43835;SDS011;39345;43.964;25.340;2023-02-28T02:00:29;12.45;;;8.15;;
43835;SDS011;39345;43.964;25.340;2023-02-28T02:02:58;13.45;;;8.48;;
43835;SDS011;39345;43.964;25.340;2023-02-28T02:05:28;12.48;;;8.70;;
43835;SDS011;39345;43.964;25.340;2023-02-28T02:08:04;13.90;;;9.25;;
43835;SDS011;39345;43.964;25.340;2023-02-28T02:10:36;13.88;;;8.93;;
43835;SDS011;39345;43.964;25.340;2023-02-28T02:15:47;14.85;;;10.13;;
43835;SDS011;39345;43.964;25.340;2023-02-28T02:23:20;15.32;;;9.93;;
43835;SDS011;39345;43.964;25.340;2023-02-28T02:25:53;13.23;;;9.00;;
43835;SDS011;39345;43.964;25.340;2023-02-28T02:28:36;14.15;;;9.48;;
43835;SDS011;39345;43.964;25.340;2023-02-28T02:31:25;14.00;;;9.35;;
43835;SDS011;39345;43.964;25.340;2023-02-28T02:36:38;13.77;;;9.23;;
43835;SDS011;39345;43.964;25.340;2023-02-28T02:41:39;14.95;;;10.20;;
43835;SDS011;39345;43.964;25.340;2023-02-28T02:44:12;14.82;;;10.82;;
43835;SDS011;39345;43.964;25.340;2023-02-28T02:46:44;13.45;;;9.07;;
43835;SDS011;39345;43.964;25.340;2023-02-28T02:49:25;14.68;;;10.10;;
43835;SDS011;39345;43.964;25.340;2023-02-28T02:51:54;15.95;;;9.45;;
43835;SDS011;39345;43.964;25.340;2023-02-28T02:54:30;13.52;;;9.85;;
43835;SDS011;39345;43.964;25.340;2023-02-28T02:57:08;16.33;;;11.15;;
43835;SDS011;39345;43.964;25.340;2023-02-28T02:59:38;15.73;;;10.57;;
43835;SDS011;39345;43.964;25.340;2023-02-28T03:02:07;15.20;;;10.43;;
43835;SDS011;39345;43.964;25.340;2023-02-28T03:04:38;13.82;;;9.30;;
43835;SDS011;39345;43.964;25.340;2023-02-28T03:07:07;15.98;;;10.10;;
43835;SDS011;39345;43.964;25.340;2023-02-28T03:09:36;15.98;;;10.52;;
43835;SDS011;39345;43.964;25.340;2023-02-28T03:12:06;14.48;;;9.90;;
43835;SDS011;39345;43.964;25.340;2023-02-28T03:22:27;17.98;;;12.07;;
43835;SDS011;39345;43.964;25.340;2023-02-28T03:25:07;16.60;;;11.35;;
43835;SDS011;39345;43.964;25.340;2023-02-28T03:30:19;17.10;;;10.50;;
43835;SDS011;39345;43.964;25.340;2023-02-28T03:32:57;16.85;;;10.63;;
43835;SDS011;39345;43.964;25.340;2023-02-28T03:35:30;15.70;;;10.13;;
43835;SDS011;39345;43.964;25.340;2023-02-28T03:38:08;17.10;;;10.83;;
43835;SDS011;39345;43.964;25.340;2023-02-28T03:40:41;14.90;;;10.27;;
43835;SDS011;39345;43.964;25.340;2023-02-28T03:43:12;14.77;;;9.90;;
43835;SDS011;39345;43.964;25.340;2023-02-28T03:45:41;17.05;;;10.30;;
43835;SDS011;39345;43.964;25.340;2023-02-28T03:50:44;16.45;;;11.00;;
43835;SDS011;39345;43.964;25.340;2023-02-28T03:56:16;16.48;;;10.55;;
43835;SDS011;39345;43.964;25.340;2023-02-28T04:01:31;17.08;;;10.20;;
43835;SDS011;39345;43.964;25.340;2023-02-28T04:04:01;16.23;;;10.43;;
43835;SDS011;39345;43.964;25.340;2023-02-28T04:06:30;16.40;;;11.25;;
43835;SDS011;39345;43.964;25.340;2023-02-28T04:08:58;18.88;;;11.68;;
43835;SDS011;39345;43.964;25.340;2023-02-28T04:11:39;17.55;;;11.35;;
43835;SDS011;39345;43.964;25.340;2023-02-28T04:14:07;17.92;;;11.43;;
43835;SDS011;39345;43.964;25.340;2023-02-28T04:16:36;18.13;;;11.13;;
43835;SDS011;39345;43.964;25.340;2023-02-28T04:19:04;18.08;;;12.57;;
43835;SDS011;39345;43.964;25.340;2023-02-28T04:24:00;19.92;;;12.70;;
43835;SDS011;39345;43.964;25.340;2023-02-28T04:26:28;18.92;;;11.90;;
43835;SDS011;39345;43.964;25.340;2023-02-28T04:28:56;17.70;;;9.55;;
43835;SDS011;39345;43.964;25.340;2023-02-28T04:31:24;18.58;;;11.85;;
43835;SDS011;39345;43.964;25.340;2023-02-28T04:33:51;18.65;;;11.48;;
43835;SDS011;39345;43.964;25.340;2023-02-28T04:36:19;19.08;;;11.13;;
43835;SDS011;39345;43.964;25.340;2023-02-28T04:38:47;19.95;;;12.32;;
43835;SDS011;39345;43.964;25.340;2023-02-28T04:41:14;19.60;;;11.68;;
43835;SDS011;39345;43.964;25.340;2023-02-28T04:43:42;17.52;;;11.27;;
43835;SDS011;39345;43.964;25.340;2023-02-28T04:46:09;18.88;;;11.55;;
43835;SDS011;39345;43.964;25.340;2023-02-28T04:48:38;17.02;;;9.88;;
43835;SDS011;39345;43.964;25.340;2023-02-28T04:51:07;17.98;;;10.40;;
43835;SDS011;39345;43.964;25.340;2023-02-28T04:53:36;17.17;;;10.98;;
43835;SDS011;39345;43.964;25.340;2023-02-28T04:56:04;19.35;;;11.02;;
43835;SDS011;39345;43.964;25.340;2023-02-28T04:58:32;21.10;;;12.05;;
43835;SDS011;39345;43.964;25.340;2023-02-28T05:01:04;16.38;;;9.50;;
43835;SDS011;39345;43.964;25.340;2023-02-28T05:03:39;19.33;;;11.52;;
43835;SDS011;39345;43.964;25.340;2023-02-28T05:06:07;19.10;;;10.45;;
43835;SDS011;39345;43.964;25.340;2023-02-28T05:08:36;19.58;;;10.98;;
43835;SDS011;39345;43.964;25.340;2023-02-28T05:11:05;22.48;;;13.00;;
43835;SDS011;39345;43.964;25.340;2023-02-28T05:13:33;21.95;;;12.95;;
43835;SDS011;39345;43.964;25.340;2023-02-28T05:16:02;21.13;;;12.40;;
43835;SDS011;39345;43.964;25.340;2023-02-28T05:18:29;23.63;;;13.88;;
43835;SDS011;39345;43.964;25.340;2023-02-28T05:20:57;21.80;;;12.80;;
43835;SDS011;39345;43.964;25.340;2023-02-28T05:23:24;22.58;;;12.55;;
43835;SDS011;39345;43.964;25.340;2023-02-28T05:25:51;22.40;;;13.68;;
43835;SDS011;39345;43.964;25.340;2023-02-28T05:28:19;22.13;;;12.73;;
43835;SDS011;39345;43.964;25.340;2023-02-28T05:30:47;21.33;;;12.35;;
43835;SDS011;39345;43.964;25.340;2023-02-28T05:33:15;21.10;;;12.68;;
43835;SDS011;39345;43.964;25.340;2023-02-28T05:35:42;21.58;;;13.13;;
43835;SDS011;39345;43.964;25.340;2023-02-28T05:38:10;23.08;;;13.25;;
43835;SDS011;39345;43.964;25.340;2023-02-28T05:40:38;22.23;;;13.25;;
43835;SDS011;39345;43.964;25.340;2023-02-28T05:43:08;20.45;;;12.30;;
43835;SDS011;39345;43.964;25.340;2023-02-28T05:45:36;20.25;;;11.50;;
43835;SDS011;39345;43.964;25.340;2023-02-28T05:48:04;23.27;;;14.07;;
43835;SDS011;39345;43.964;25.340;2023-02-28T05:50:31;23.00;;;13.27;;
43835;SDS011;39345;43.964;25.340;2023-02-28T05:52:59;20.90;;;12.43;;
43835;SDS011;39345;43.964;25.340;2023-02-28T05:55:27;29.02;;;15.38;;
43835;SDS011;39345;43.964;25.340;2023-02-28T05:57:54;27.10;;;16.25;;
43835;SDS011;39345;43.964;25.340;2023-02-28T06:00:22;23.83;;;14.48;;
43835;SDS011;39345;43.964;25.340;2023-02-28T06:02:50;31.30;;;17.73;;
43835;SDS011;39345;43.964;25.340;2023-02-28T06:05:19;22.75;;;12.93;;
43835;SDS011;39345;43.964;25.340;2023-02-28T06:07:47;26.63;;;15.63;;
43835;SDS011;39345;43.964;25.340;2023-02-28T06:10:14;24.63;;;13.18;;
43835;SDS011;39345;43.964;25.340;2023-02-28T06:12:42;26.73;;;14.63;;
43835;SDS011;39345;43.964;25.340;2023-02-28T06:15:13;26.58;;;15.15;;
43835;SDS011;39345;43.964;25.340;2023-02-28T06:17:41;23.20;;;13.77;;
43835;SDS011;39345;43.964;25.340;2023-02-28T06:20:09;20.60;;;12.32;;
43835;SDS011;39345;43.964;25.340;2023-02-28T06:22:39;23.30;;;13.82;;
43835;SDS011;39345;43.964;25.340;2023-02-28T06:25:06;21.77;;;11.40;;
43835;SDS011;39345;43.964;25.340;2023-02-28T06:27:34;19.08;;;11.15;;
43835;SDS011;39345;43.964;25.340;2023-02-28T06:30:02;26.58;;;15.07;;
43835;SDS011;39345;43.964;25.340;2023-02-28T06:32:30;23.38;;;13.52;;
43835;SDS011;39345;43.964;25.340;2023-02-28T06:34:57;23.15;;;14.10;;
43835;SDS011;39345;43.964;25.340;2023-02-28T06:37:24;25.00;;;14.15;;
43835;SDS011;39345;43.964;25.340;2023-02-28T06:39:53;29.42;;;17.27;;
43835;SDS011;39345;43.964;25.340;2023-02-28T06:42:22;29.83;;;16.45;;
43835;SDS011;39345;43.964;25.340;2023-02-28T06:44:57;30.05;;;15.98;;
43835;SDS011;39345;43.964;25.340;2023-02-28T06:47:25;18.70;;;10.13;;
43835;SDS011;39345;43.964;25.340;2023-02-28T06:49:52;26.45;;;14.10;;
43835;SDS011;39345;43.964;25.340;2023-02-28T06:52:19;18.38;;;11.18;;
43835;SDS011;39345;43.964;25.340;2023-02-28T06:54:48;22.92;;;12.75;;
43835;SDS011;39345;43.964;25.340;2023-02-28T06:57:29;22.30;;;13.52;;
43835;SDS011;39345;43.964;25.340;2023-02-28T06:59:58;22.38;;;13.07;;
43835;SDS011;39345;43.964;25.340;2023-02-28T07:02:26;22.65;;;12.93;;
43835;SDS011;39345;43.964;25.340;2023-02-28T07:04:54;20.75;;;12.88;;
43835;SDS011;39345;43.964;25.340;2023-02-28T07:07:21;23.77;;;13.65;;
43835;SDS011;39345;43.964;25.340;2023-02-28T07:09:49;26.17;;;15.43;;
43835;SDS011;39345;43.964;25.340;2023-02-28T07:12:16;24.48;;;14.82;;
43835;SDS011;39345;43.964;25.340;2023-02-28T07:14:44;24.35;;;15.60;;
43835;SDS011;39345;43.964;25.340;2023-02-28T07:17:11;19.98;;;10.70;;
43835;SDS011;39345;43.964;25.340;2023-02-28T07:19:39;23.20;;;14.65;;
43835;SDS011;39345;43.964;25.340;2023-02-28T07:22:06;28.00;;;15.60;;
43835;SDS011;39345;43.964;25.340;2023-02-28T07:24:34;27.95;;;17.33;;
43835;SDS011;39345;43.964;25.340;2023-02-28T07:27:04;24.17;;;15.15;;
43835;SDS011;39345;43.964;25.340;2023-02-28T07:29:32;22.67;;;13.07;;
43835;SDS011;39345;43.964;25.340;2023-02-28T07:32:00;23.35;;;13.18;;
43835;SDS011;39345;43.964;25.340;2023-02-28T07:34:28;24.95;;;14.63;;
43835;SDS011;39345;43.964;25.340;2023-02-28T07:36:55;25.65;;;15.52;;
43835;SDS011;39345;43.964;25.340;2023-02-28T07:39:23;21.75;;;12.40;;
43835;SDS011;39345;43.964;25.340;2023-02-28T07:41:50;28.25;;;14.85;;
43835;SDS011;39345;43.964;25.340;2023-02-28T07:44:21;26.67;;;15.55;;
43835;SDS011;39345;43.964;25.340;2023-02-28T07:46:49;27.08;;;15.38;;
43835;SDS011;39345;43.964;25.340;2023-02-28T07:49:16;26.15;;;15.32;;
43835;SDS011;39345;43.964;25.340;2023-02-28T07:51:43;27.80;;;15.75;;
43835;SDS011;39345;43.964;25.340;2023-02-28T07:54:11;23.95;;;13.48;;
43835;SDS011;39345;43.964;25.340;2023-02-28T07:56:38;27.38;;;15.70;;
43835;SDS011;39345;43.964;25.340;2023-02-28T07:59:06;26.15;;;14.88;;
43835;SDS011;39345;43.964;25.340;2023-02-28T08:01:33;30.80;;;16.75;;
43835;SDS011;39345;43.964;25.340;2023-02-28T08:04:01;33.92;;;18.73;;
43835;SDS011;39345;43.964;25.340;2023-02-28T08:06:28;31.48;;;17.90;;
43835;SDS011;39345;43.964;25.340;2023-02-28T08:08:56;30.42;;;17.05;;
43835;SDS011;39345;43.964;25.340;2023-02-28T08:11:23;25.70;;;15.77;;
43835;SDS011;39345;43.964;25.340;2023-02-28T08:13:51;27.67;;;15.55;;
43835;SDS011;39345;43.964;25.340;2023-02-28T08:16:18;20.92;;;11.10;;
43835;SDS011;39345;43.964;25.340;2023-02-28T08:18:51;28.45;;;16.58;;
43835;SDS011;39345;43.964;25.340;2023-02-28T08:21:19;27.55;;;15.30;;
43835;SDS011;39345;43.964;25.340;2023-02-28T08:23:47;27.88;;;16.92;;
43835;SDS011;39345;43.964;25.340;2023-02-28T08:26:15;29.02;;;17.52;;
43835;SDS011;39345;43.964;25.340;2023-02-28T08:28:43;27.08;;;16.38;;
43835;SDS011;39345;43.964;25.340;2023-02-28T08:31:11;29.48;;;17.02;;
43835;SDS011;39345;43.964;25.340;2023-02-28T08:33:40;25.17;;;15.40;;
43835;SDS011;39345;43.964;25.340;2023-02-28T08:36:08;27.88;;;17.08;;
43835;SDS011;39345;43.964;25.340;2023-02-28T08:38:36;25.13;;;15.50;;
43835;SDS011;39345;43.964;25.340;2023-02-28T08:41:05;24.75;;;14.45;;
43835;SDS011;39345;43.964;25.340;2023-02-28T08:43:33;24.15;;;15.57;;
43835;SDS011;39345;43.964;25.340;2023-02-28T08:46:01;24.67;;;16.65;;
43835;SDS011;39345;43.964;25.340;2023-02-28T08:48:30;22.35;;;14.13;;
43835;SDS011;39345;43.964;25.340;2023-02-28T08:50:59;20.58;;;12.70;;
43835;SDS011;39345;43.964;25.340;2023-02-28T08:53:37;23.05;;;13.98;;
43835;SDS011;39345;43.964;25.340;2023-02-28T08:56:07;21.63;;;12.38;;
43835;SDS011;39345;43.964;25.340;2023-02-28T08:58:35;20.80;;;14.05;;
43835;SDS011;39345;43.964;25.340;2023-02-28T09:01:10;22.85;;;13.77;;
43835;SDS011;39345;43.964;25.340;2023-02-28T09:03:38;20.27;;;13.05;;
43835;SDS011;39345;43.964;25.340;2023-02-28T09:06:07;21.63;;;13.63;;
43835;SDS011;39345;43.964;25.340;2023-02-28T09:08:35;21.20;;;14.10;;
43835;SDS011;39345;43.964;25.340;2023-02-28T09:11:03;22.67;;;14.02;;
43835;SDS011;39345;43.964;25.340;2023-02-28T09:13:33;22.50;;;14.00;;
43835;SDS011;39345;43.964;25.340;2023-02-28T09:16:01;20.25;;;11.68;;
43835;SDS011;39345;43.964;25.340;2023-02-28T09:18:29;20.33;;;13.63;;
43835;SDS011;39345;43.964;25.340;2023-02-28T09:20:57;21.98;;;13.65;;
43835;SDS011;39345;43.964;25.340;2023-02-28T09:23:24;20.88;;;13.80;;
43835;SDS011;39345;43.964;25.340;2023-02-28T09:25:53;22.58;;;15.52;;
43835;SDS011;39345;43.964;25.340;2023-02-28T09:28:21;19.75;;;13.25;;
43835;SDS011;39345;43.964;25.340;2023-02-28T09:30:49;17.13;;;11.90;;
43835;SDS011;39345;43.964;25.340;2023-02-28T09:33:17;22.13;;;13.88;;
43835;SDS011;39345;43.964;25.340;2023-02-28T09:35:47;22.27;;;13.95;;
43835;SDS011;39345;43.964;25.340;2023-02-28T09:38:15;20.10;;;12.05;;
43835;SDS011;39345;43.964;25.340;2023-02-28T09:40:53;19.20;;;11.77;;
43835;SDS011;39345;43.964;25.340;2023-02-28T09:43:22;23.35;;;13.40;;
43835;SDS011;39345;43.964;25.340;2023-02-28T09:48:44;22.70;;;15.38;;
43835;SDS011;39345;43.964;25.340;2023-02-28T09:53:48;19.25;;;11.02;;
43835;SDS011;39345;43.964;25.340;2023-02-28T09:56:26;23.02;;;13.50;;
43835;SDS011;39345;43.964;25.340;2023-02-28T10:09:56;21.45;;;14.15;;
43835;SDS011;39345;43.964;25.340;2023-02-28T10:12:27;23.45;;;14.68;;
43835;SDS011;39345;43.964;25.340;2023-02-28T10:14:56;22.80;;;14.45;;
43835;SDS011;39345;43.964;25.340;2023-02-28T10:17:26;24.83;;;15.95;;
43835;SDS011;39345;43.964;25.340;2023-02-28T10:20:12;24.85;;;16.40;;
43835;SDS011;39345;43.964;25.340;2023-02-28T10:22:44;25.92;;;15.98;;
43835;SDS011;39345;43.964;25.340;2023-02-28T10:25:19;24.73;;;16.20;;
43835;SDS011;39345;43.964;25.340;2023-02-28T10:27:47;24.85;;;15.80;;
43835;SDS011;39345;43.964;25.340;2023-02-28T10:30:14;24.77;;;14.60;;
43835;SDS011;39345;43.964;25.340;2023-02-28T10:32:44;24.50;;;14.95;;
43835;SDS011;39345;43.964;25.340;2023-02-28T10:35:16;26.02;;;15.25;;
43835;SDS011;39345;43.964;25.340;2023-02-28T10:37:45;26.15;;;15.63;;
43835;SDS011;39345;43.964;25.340;2023-02-28T10:45:23;29.35;;;17.27;;
43835;SDS011;39345;43.964;25.340;2023-02-28T10:47:55;25.30;;;15.13;;
43835;SDS011;39345;43.964;25.340;2023-02-28T10:50:27;27.98;;;17.65;;
43835;SDS011;39345;43.964;25.340;2023-02-28T10:52:57;25.58;;;16.17;;
43835;SDS011;39345;43.964;25.340;2023-02-28T10:55:32;27.38;;;14.60;;
43835;SDS011;39345;43.964;25.340;2023-02-28T10:57:59;28.33;;;17.17;;
43835;SDS011;39345;43.964;25.340;2023-02-28T11:00:31;32.45;;;17.50;;
43835;SDS011;39345;43.964;25.340;2023-02-28T11:02:59;32.30;;;17.08;;
43835;SDS011;39345;43.964;25.340;2023-02-28T11:05:29;27.05;;;16.48;;
43835;SDS011;39345;43.964;25.340;2023-02-28T11:07:59;24.25;;;14.82;;
43835;SDS011;39345;43.964;25.340;2023-02-28T11:10:31;33.83;;;19.20;;
43835;SDS011;39345;43.964;25.340;2023-02-28T11:13:01;28.17;;;15.68;;
43835;SDS011;39345;43.964;25.340;2023-02-28T11:15:30;30.50;;;16.90;;
43835;SDS011;39345;43.964;25.340;2023-02-28T11:20:38;25.00;;;13.80;;
43835;SDS011;39345;43.964;25.340;2023-02-28T11:23:10;29.08;;;16.23;;
43835;SDS011;39345;43.964;25.340;2023-02-28T11:25:39;27.65;;;16.05;;
43835;SDS011;39345;43.964;25.340;2023-02-28T11:28:23;25.50;;;14.98;;
43835;SDS011;39345;43.964;25.340;2023-02-28T11:33:29;28.75;;;15.70;;
43835;SDS011;39345;43.964;25.340;2023-02-28T11:35:58;24.90;;;15.77;;
43835;SDS011;39345;43.964;25.340;2023-02-28T11:38:26;22.70;;;14.18;;
43835;SDS011;39345;43.964;25.340;2023-02-28T11:51:00;24.60;;;16.10;;
43835;SDS011;39345;43.964;25.340;2023-02-28T11:56:10;29.70;;;16.27;;
43835;SDS011;39345;43.964;25.340;2023-02-28T12:01:50;27.08;;;16.63;;
43835;SDS011;39345;43.964;25.340;2023-02-28T12:07:02;28.42;;;16.50;;
43835;SDS011;39345;43.964;25.340;2023-02-28T12:15:15;26.02;;;17.00;;
43835;SDS011;39345;43.964;25.340;2023-02-28T12:17:59;24.13;;;15.23;;
43835;SDS011;39345;43.964;25.340;2023-02-28T12:20:46;27.75;;;15.70;;
43835;SDS011;39345;43.964;25.340;2023-02-28T12:25:54;26.35;;;17.55;;
43835;SDS011;39345;43.964;25.340;2023-02-28T12:28:28;25.85;;;15.95;;
43835;SDS011;39345;43.964;25.340;2023-02-28T12:33:35;22.05;;;14.80;;
43835;SDS011;39345;43.964;25.340;2023-02-28T12:36:10;22.70;;;14.73;;
43835;SDS011;39345;43.964;25.340;2023-02-28T12:38:45;26.52;;;16.48;;
43835;SDS011;39345;43.964;25.340;2023-02-28T12:41:15;23.60;;;14.50;;
43835;SDS011;39345;43.964;25.340;2023-02-28T12:43:44;25.60;;;15.68;;
43835;SDS011;39345;43.964;25.340;2023-02-28T12:46:14;24.95;;;15.75;;
43835;SDS011;39345;43.964;25.340;2023-02-28T12:51:17;26.05;;;15.75;;
43835;SDS011;39345;43.964;25.340;2023-02-28T12:56:22;24.80;;;16.25;;
43835;SDS011;39345;43.964;25.340;2023-02-28T12:58:56;26.95;;;16.80;;
43835;SDS011;39345;43.964;25.340;2023-02-28T13:09:05;27.25;;;16.80;;
43835;SDS011;39345;43.964;25.340;2023-02-28T13:11:43;27.90;;;16.88;;
43835;SDS011;39345;43.964;25.340;2023-02-28T13:16:58;25.25;;;17.13;;
43835;SDS011;39345;43.964;25.340;2023-02-28T13:19:27;29.23;;;16.55;;
43835;SDS011;39345;43.964;25.340;2023-02-28T13:21:55;28.52;;;17.88;;
43835;SDS011;39345;43.964;25.340;2023-02-28T13:27:11;26.08;;;15.88;;
43835;SDS011;39345;43.964;25.340;2023-02-28T13:29:39;30.40;;;18.40;;
43835;SDS011;39345;43.964;25.340;2023-02-28T13:50:14;26.13;;;16.08;;
43835;SDS011;39345;43.964;25.340;2023-02-28T14:03:27;28.95;;;16.60;;
43835;SDS011;39345;43.964;25.340;2023-02-28T14:08:36;28.48;;;17.63;;
43835;SDS011;39345;43.964;25.340;2023-02-28T14:11:06;32.35;;;18.33;;
43835;SDS011;39345;43.964;25.340;2023-02-28T14:16:13;29.15;;;18.10;;
43835;SDS011;39345;43.964;25.340;2023-02-28T14:18:51;29.25;;;17.05;;
43835;SDS011;39345;43.964;25.340;2023-02-28T14:21:23;43.70;;;21.33;;
43835;SDS011;39345;43.964;25.340;2023-02-28T14:31:54;31.52;;;19.08;;
43835;SDS011;39345;43.964;25.340;2023-02-28T14:34:28;33.65;;;18.85;;
43835;SDS011;39345;43.964;25.340;2023-02-28T16:03:00;32.55;;;17.83;;
43835;SDS011;39345;43.964;25.340;2023-02-28T16:05:29;39.70;;;21.40;;
43835;SDS011;39345;43.964;25.340;2023-02-28T16:07:59;38.00;;;23.65;;
43835;SDS011;39345;43.964;25.340;2023-02-28T16:10:27;39.35;;;21.58;;
43835;SDS011;39345;43.964;25.340;2023-02-28T16:12:55;38.80;;;22.63;;
43835;SDS011;39345;43.964;25.340;2023-02-28T16:15:25;38.80;;;22.10;;
43835;SDS011;39345;43.964;25.340;2023-02-28T16:17:53;36.10;;;21.40;;
43835;SDS011;39345;43.964;25.340;2023-02-28T17:07:01;44.42;;;26.05;;
43835;SDS011;39345;43.964;25.340;2023-02-28T17:09:28;47.78;;;26.73;;
43835;SDS011;39345;43.964;25.340;2023-02-28T17:12:06;44.65;;;26.73;;
43835;SDS011;39345;43.964;25.340;2023-02-28T17:14:35;40.65;;;23.83;;
43835;SDS011;39345;43.964;25.340;2023-02-28T17:17:04;39.35;;;22.77;;
43835;SDS011;39345;43.964;25.340;2023-02-28T17:19:31;42.63;;;24.42;;
43835;SDS011;39345;43.964;25.340;2023-02-28T17:22:00;40.42;;;22.77;;
43835;SDS011;39345;43.964;25.340;2023-02-28T17:24:29;43.53;;;24.30;;
43835;SDS011;39345;43.964;25.340;2023-02-28T17:26:57;40.83;;;23.63;;
43835;SDS011;39345;43.964;25.340;2023-02-28T17:29:24;43.38;;;25.40;;
43835;SDS011;39345;43.964;25.340;2023-02-28T17:31:52;43.03;;;24.50;;
43835;SDS011;39345;43.964;25.340;2023-02-28T17:34:20;41.53;;;23.43;;
43835;SDS011;39345;43.964;25.340;2023-02-28T17:36:49;37.80;;;23.25;;
43835;SDS011;39345;43.964;25.340;2023-02-28T17:39:17;41.08;;;23.77;;
43835;SDS011;39345;43.964;25.340;2023-02-28T17:41:50;50.42;;;28.42;;
43835;SDS011;39345;43.964;25.340;2023-02-28T17:44:18;48.20;;;26.75;;
43835;SDS011;39345;43.964;25.340;2023-02-28T20:07:04;34.50;;;19.20;;
43835;SDS011;39345;43.964;25.340;2023-02-28T20:16:56;32.08;;;17.75;;
43835;SDS011;39345;43.964;25.340;2023-02-28T20:19:23;28.52;;;16.45;;
43835;SDS011;39345;43.964;25.340;2023-02-28T20:21:51;36.65;;;20.50;;
43835;SDS011;39345;43.964;25.340;2023-02-28T20:24:18;34.72;;;19.92;;
43835;SDS011;39345;43.964;25.340;2023-02-28T20:26:51;31.13;;;18.15;;
43835;SDS011;39345;43.964;25.340;2023-02-28T20:29:19;31.95;;;18.23;;
43835;SDS011;39345;43.964;25.340;2023-02-28T20:31:46;34.40;;;17.75;;
43835;SDS011;39345;43.964;25.340;2023-02-28T20:34:14;35.40;;;19.10;;
43835;SDS011;39345;43.964;25.340;2023-02-28T22:15:01;28.35;;;16.38;;
43835;SDS011;39345;43.964;25.340;2023-02-28T22:17:29;30.95;;;18.08;;
43835;SDS011;39345;43.964;25.340;2023-02-28T22:19:56;28.25;;;16.85;;
43835;SDS011;39345;43.964;25.340;2023-02-28T22:22:24;27.70;;;17.52;;
43835;SDS011;39345;43.964;25.340;2023-02-28T22:24:52;27.85;;;16.67;;
43835;SDS011;39345;43.964;25.340;2023-02-28T22:27:19;30.45;;;17.90;;
43835;SDS011;39345;43.964;25.340;2023-02-28T22:29:47;31.45;;;17.73;;
43835;SDS011;39345;43.964;25.340;2023-02-28T22:32:14;28.05;;;15.75;;
43835;SDS011;39345;43.964;25.340;2023-02-28T22:34:41;29.48;;;17.73;;
43835;SDS011;39345;43.964;25.340;2023-02-28T22:37:09;30.27;;;16.50;;
43835;SDS011;39345;43.964;25.340;2023-02-28T22:39:36;30.15;;;16.95;;
43835;SDS011;39345;43.964;25.340;2023-02-28T22:42:04;30.70;;;17.10;;
43835;SDS011;39345;43.964;25.340;2023-02-28T22:44:31;30.10;;;16.65;;
43835;SDS011;39345;43.964;25.340;2023-02-28T22:46:59;28.40;;;17.03;;
43835;SDS011;39345;43.964;25.340;2023-02-28T22:49:26;28.25;;;16.48;;
43835;SDS011;39345;43.964;25.340;2023-02-28T22:51:53;28.35;;;16.83;;
43835;SDS011;39345;43.964;25.340;2023-02-28T22:54:21;32.65;;;18.27;;
43835;SDS011;39345;43.964;25.340;2023-02-28T22:56:48;27.60;;;16.95;;
43835;SDS011;39345;43.964;25.340;2023-02-28T22:59:16;26.53;;;17.50;;
43835;SDS011;39345;43.964;25.340;2023-02-28T23:01:43;32.45;;;18.55;;
43835;SDS011;39345;43.964;25.340;2023-02-28T23:04:11;28.80;;;17.90;;
43835;SDS011;39345;43.964;25.340;2023-02-28T23:06:39;29.77;;;17.73;;
43835;SDS011;39345;43.964;25.340;2023-02-28T23:09:16;33.38;;;18.75;;
43835;SDS011;39345;43.964;25.340;2023-02-28T23:11:46;33.53;;;18.13;;
43835;SDS011;39345;43.964;25.340;2023-02-28T23:14:15;31.55;;;18.20;;
43835;SDS011;39345;43.964;25.340;2023-02-28T23:16:44;30.67;;;19.20;;